createdAt,value
2022-07-25T00:00:11.741Z,4.30
2022-07-25T00:02:39.525Z,4.20
2022-07-25T00:05:08.154Z,4.53
2022-07-25T00:07:35.914Z,4.37
2022-07-25T00:10:03.934Z,4.67
2022-07-25T00:12:31.592Z,4.30
2022-07-25T00:15:00.777Z,4.40
2022-07-25T00:17:28.499Z,4.53
2022-07-25T00:19:56.161Z,4.17
2022-07-25T00:22:23.874Z,4.43
2022-07-25T00:24:51.596Z,4.17
2022-07-25T00:27:19.232Z,4.43
2022-07-25T00:29:46.941Z,4.50
2022-07-25T00:32:16.090Z,4.50
2022-07-25T00:34:43.859Z,4.50
2022-07-25T00:37:11.564Z,4.40
2022-07-25T00:39:39.249Z,4.50
2022-07-25T00:42:07.322Z,4.47
2022-07-25T00:44:35.164Z,4.33
2022-07-25T00:47:03.062Z,4.50
2022-07-25T00:49:32.089Z,4.80
2022-07-25T00:52:00.336Z,4.20
2022-07-25T00:54:28.227Z,4.40
2022-07-25T00:56:56.014Z,5.03
2022-07-25T00:59:23.722Z,4.33
2022-07-25T01:01:51.906Z,4.40
2022-07-25T01:04:19.705Z,4.67
2022-07-25T01:06:48.762Z,4.87
2022-07-25T01:09:17.143Z,4.73
2022-07-25T01:11:44.812Z,4.67
2022-07-25T01:14:12.467Z,4.67
2022-07-25T01:16:41.201Z,4.73
2022-07-25T01:19:08.938Z,4.50
2022-07-25T01:21:40.588Z,4.80
2022-07-25T01:24:09.412Z,4.83
2022-07-25T01:26:37.299Z,5.03
2022-07-25T01:29:05.104Z,4.40
2022-07-25T01:31:32.861Z,4.20
2022-07-25T01:34:00.537Z,4.50
2022-07-25T01:36:28.286Z,4.30
2022-07-25T01:38:57.245Z,5.03
2022-07-25T01:41:24.950Z,4.40
2022-07-25T01:43:52.633Z,5.10
2022-07-25T01:46:20.315Z,4.73
2022-07-25T01:48:48.094Z,4.73
2022-07-25T01:51:15.839Z,4.57
2022-07-25T01:53:48.132Z,4.63
2022-07-25T01:56:17.408Z,4.87
2022-07-25T01:58:47.118Z,4.60
2022-07-25T02:01:14.831Z,4.80
2022-07-25T02:03:42.639Z,4.17
2022-07-25T02:06:10.315Z,4.43
2022-07-25T02:08:37.978Z,5.43
2022-07-25T02:11:05.774Z,5.07
2022-07-25T02:13:34.806Z,5.60
2022-07-25T02:16:02.445Z,4.83
2022-07-25T02:18:30.549Z,5.67
2022-07-25T02:20:58.265Z,5.63
2022-07-25T02:23:25.917Z,5.27
2022-07-25T02:25:53.551Z,5.80
2022-07-25T02:28:21.229Z,6.20
2022-07-25T02:30:50.272Z,5.07
2022-07-25T02:33:18.102Z,5.90
2022-07-25T02:35:45.726Z,5.50
2022-07-25T02:38:19.419Z,6.00
2022-07-25T02:40:47.334Z,5.80
2022-07-25T02:43:14.995Z,5.70
2022-07-25T02:45:43.607Z,6.00
2022-07-25T02:48:12.724Z,5.27
2022-07-25T02:50:40.694Z,5.40
2022-07-25T02:53:08.346Z,6.10
2022-07-25T02:55:35.961Z,6.20
2022-07-25T02:58:03.660Z,5.40
2022-07-25T03:00:31.403Z,5.90
2022-07-25T03:02:59.381Z,6.23
2022-07-25T03:05:28.483Z,6.63
2022-07-25T03:07:56.234Z,5.90
2022-07-25T03:10:23.879Z,6.00
2022-07-25T03:12:51.552Z,6.03
2022-07-25T03:15:19.230Z,5.80
2022-07-25T03:17:46.992Z,5.63
2022-07-25T03:20:14.683Z,6.37
2022-07-25T03:22:43.765Z,6.83
2022-07-25T03:25:15.567Z,6.27
2022-07-25T03:27:49.601Z,6.20
2022-07-25T03:30:17.282Z,6.33
2022-07-25T03:32:44.942Z,6.27
2022-07-25T03:35:12.643Z,5.57
2022-07-25T03:37:40.351Z,6.03
2022-07-25T03:40:10.399Z,6.47
2022-07-25T03:42:38.027Z,6.23
2022-07-25T03:45:06.615Z,5.87
2022-07-25T03:47:34.200Z,6.20
2022-07-25T03:50:01.901Z,6.60
2022-07-25T03:52:29.519Z,5.70
2022-07-25T03:54:57.195Z,6.23
2022-07-25T03:57:26.245Z,5.93
2022-07-25T03:59:53.922Z,6.27
2022-07-25T04:02:21.653Z,6.07
2022-07-25T04:04:49.335Z,5.90
2022-07-25T04:07:17.024Z,6.43
2022-07-25T04:09:44.699Z,6.17
2022-07-25T04:12:12.806Z,5.83
2022-07-25T04:14:41.786Z,6.13
2022-07-25T04:17:09.518Z,6.57
2022-07-25T04:19:37.339Z,6.47
2022-07-25T04:22:05.038Z,6.33
2022-07-25T04:24:32.646Z,6.77
2022-07-25T04:27:00.314Z,6.00
2022-07-25T04:29:27.978Z,6.10
2022-07-25T04:31:58.064Z,5.77
2022-07-25T04:34:26.181Z,6.20
2022-07-25T04:36:53.896Z,7.00
2022-07-25T04:39:21.602Z,5.63
2022-07-25T04:41:49.318Z,6.57
2022-07-25T04:44:16.987Z,6.30
2022-07-25T04:46:44.800Z,6.50
2022-07-25T04:49:13.848Z,5.97
2022-07-25T04:51:41.511Z,6.40
2022-07-25T04:54:09.923Z,6.00
2022-07-25T04:56:37.860Z,6.57
2022-07-25T04:59:06.387Z,5.70
2022-07-25T05:01:34.693Z,5.47
2022-07-25T05:04:02.863Z,5.27
2022-07-25T05:06:32.000Z,5.73
2022-07-25T05:08:59.617Z,5.23
2022-07-25T05:11:27.278Z,5.43
2022-07-25T05:13:54.906Z,5.10
2022-07-25T05:16:22.587Z,5.60
2022-07-25T05:18:50.245Z,5.40
2022-07-25T05:21:17.895Z,5.40
2022-07-25T05:23:46.896Z,5.50
2022-07-25T05:26:14.507Z,5.57
2022-07-25T05:28:42.196Z,6.00
2022-07-25T05:31:09.836Z,5.20
2022-07-25T05:33:37.524Z,5.53
2022-07-25T05:36:05.981Z,5.00
2022-07-25T05:38:34.018Z,6.10
2022-07-25T05:41:03.127Z,6.33
2022-07-25T05:43:30.790Z,5.30
2022-07-25T05:46:01.899Z,4.73
2022-07-25T05:48:29.715Z,5.90
2022-07-25T05:50:59.126Z,6.47
2022-07-25T05:53:27.174Z,6.50
2022-07-25T05:55:54.938Z,6.40
2022-07-25T05:58:29.082Z,5.90
2022-07-25T06:00:57.748Z,5.93
2022-07-25T06:03:25.504Z,5.80
2022-07-25T06:05:53.181Z,5.97
2022-07-25T06:08:20.905Z,6.07
2022-07-25T06:10:50.235Z,5.90
2022-07-25T06:13:17.943Z,6.90
2022-07-25T06:15:49.883Z,6.37
2022-07-25T06:18:17.530Z,6.20
2022-07-25T06:20:45.210Z,6.37
2022-07-25T06:23:12.894Z,6.53
2022-07-25T06:25:40.834Z,6.57
2022-07-25T06:28:08.956Z,6.10
2022-07-25T06:30:38.404Z,6.30
2022-07-25T06:33:07.520Z,7.00
2022-07-25T06:35:35.173Z,7.13
2022-07-25T06:38:03.339Z,6.73
2022-07-25T06:40:31.094Z,7.27
2022-07-25T06:42:58.906Z,6.13
2022-07-25T06:45:26.548Z,6.90
2022-07-25T06:47:54.236Z,5.87
2022-07-25T06:50:23.379Z,5.90
2022-07-25T06:52:51.359Z,6.27
2022-07-25T06:55:19.103Z,6.80
2022-07-25T06:57:46.902Z,5.93
2022-07-25T07:00:15.707Z,6.50
2022-07-25T07:02:54.366Z,6.30
2022-07-25T07:05:23.826Z,6.40
2022-07-25T07:07:51.491Z,6.40
2022-07-25T07:10:19.449Z,5.57
2022-07-25T07:12:47.596Z,6.20
2022-07-25T07:15:15.439Z,5.90
2022-07-25T07:17:43.273Z,5.80
2022-07-25T07:20:12.345Z,5.97
2022-07-25T07:22:46.636Z,6.10
2022-07-25T07:25:15.446Z,6.30
2022-07-25T07:27:43.501Z,5.93
2022-07-25T07:30:12.225Z,6.00
2022-07-25T07:32:40.133Z,6.27
2022-07-25T07:35:08.451Z,5.90
2022-07-25T07:37:41.457Z,5.63
2022-07-25T07:40:18.149Z,6.43
2022-07-25T07:42:47.490Z,6.95
2022-07-25T07:45:16.742Z,5.72
2022-07-25T07:47:45.048Z,6.23
2022-07-25T07:50:12.772Z,5.93
2022-07-25T07:52:40.424Z,6.32
2022-07-25T07:55:26.495Z,6.95
2022-07-25T07:57:55.555Z,6.50
2022-07-25T08:00:23.792Z,6.15
2022-07-25T08:02:52.993Z,6.00
2022-07-25T08:05:22.468Z,5.85
2022-07-25T08:07:51.556Z,5.80
2022-07-25T08:10:21.542Z,5.35
2022-07-25T08:12:49.433Z,6.32
2022-07-25T08:15:19.126Z,5.65
2022-07-25T08:17:47.367Z,6.53
2022-07-25T08:20:36.720Z,6.43
2022-07-25T08:23:03.691Z,6.20
2022-07-25T08:25:32.169Z,5.78
2022-07-25T08:28:00.224Z,5.68
2022-07-25T08:30:29.562Z,5.68
2022-07-25T08:32:59.700Z,5.72
2022-07-25T08:35:28.799Z,6.18
2022-07-25T08:37:57.254Z,6.20
2022-07-25T08:40:26.902Z,5.30
2022-07-25T08:42:56.403Z,5.45
2022-07-25T08:45:24.591Z,5.70
2022-07-25T08:47:55.016Z,6.03
2022-07-25T08:50:25.348Z,5.53
2022-07-25T08:53:04.926Z,5.75
2022-07-25T08:55:40.985Z,5.85
2022-07-25T08:58:08.672Z,5.95
2022-07-25T09:00:36.632Z,5.40
2022-07-25T09:03:07.211Z,5.82
2022-07-25T09:05:37.245Z,5.57
2022-07-25T09:08:08.608Z,6.20
2022-07-25T09:10:36.950Z,5.82
2022-07-25T09:13:07.776Z,5.90
2022-07-25T09:15:36.825Z,6.03
2022-07-25T09:18:07.574Z,5.72
2022-07-25T09:20:40.987Z,5.70
2022-07-25T09:23:09.120Z,5.45
2022-07-25T09:25:37.013Z,6.07
2022-07-25T09:28:14.834Z,5.75
2022-07-25T09:30:55.137Z,5.18
2022-07-25T09:33:25.685Z,5.03
2022-07-25T09:35:54.331Z,5.03
2022-07-25T09:38:23.035Z,5.80
2022-07-25T09:40:58.055Z,5.05
2022-07-25T09:43:36.950Z,5.82
2022-07-25T09:46:05.091Z,5.60
2022-07-25T09:48:34.341Z,4.97
2022-07-25T09:51:02.553Z,6.03
2022-07-25T09:53:30.387Z,5.82
2022-07-25T09:55:58.048Z,5.10
2022-07-25T09:58:25.885Z,5.35
2022-07-25T10:00:57.476Z,5.75
2022-07-25T10:03:30.890Z,5.18
2022-07-25T10:06:11.412Z,6.03
2022-07-25T10:08:39.946Z,4.97
2022-07-25T10:11:18.697Z,4.28
2022-07-25T10:13:46.388Z,4.60
2022-07-25T10:16:18.945Z,4.55
2022-07-25T10:18:51.959Z,4.65
2022-07-25T10:21:27.218Z,3.97
2022-07-25T10:24:03.661Z,4.25
2022-07-25T10:26:32.785Z,4.40
2022-07-25T10:29:01.702Z,4.18
2022-07-25T10:31:37.002Z,4.18
2022-07-25T10:34:07.221Z,4.43
2022-07-25T10:36:47.485Z,3.90
2022-07-25T10:39:16.437Z,4.30
2022-07-25T10:41:53.754Z,3.95
2022-07-25T10:44:21.671Z,4.18
2022-07-25T10:46:50.231Z,3.75
2022-07-25T10:49:19.901Z,4.40
2022-07-25T10:51:57.317Z,4.40
2022-07-25T10:54:25.031Z,4.30
2022-07-25T10:56:55.056Z,3.92
2022-07-25T10:59:34.952Z,4.50
2022-07-25T11:02:03.483Z,4.07
2022-07-25T11:04:31.764Z,4.05
2022-07-25T11:07:09.298Z,4.28
2022-07-25T11:09:37.009Z,3.85
2022-07-25T11:12:05.408Z,4.47
2022-07-25T11:14:34.951Z,4.53
2022-07-25T11:17:15.607Z,4.38
2022-07-25T11:19:44.781Z,4.40
2022-07-25T11:22:13.798Z,4.65
2022-07-25T11:24:43.010Z,4.30
2022-07-25T11:27:12.757Z,4.60
2022-07-25T11:29:41.324Z,4.32
2022-07-25T11:32:10.555Z,4.15
2022-07-25T11:34:41.211Z,3.95
2022-07-25T11:37:11.348Z,4.40
2022-07-25T11:39:42.085Z,4.43
2022-07-25T11:42:11.343Z,4.57
2022-07-25T11:44:44.251Z,4.18
2022-07-25T11:47:24.806Z,4.32
2022-07-25T11:49:53.550Z,4.43
2022-07-25T11:52:22.451Z,4.40
2022-07-25T11:54:58.595Z,4.45
2022-07-25T11:57:28.870Z,4.22
2022-07-25T11:59:57.088Z,4.53
2022-07-25T12:02:26.259Z,4.00
2022-07-25T12:04:58.132Z,4.10
2022-07-25T12:07:37.694Z,4.18
2022-07-25T12:10:08.129Z,4.25
2022-07-25T12:12:51.240Z,4.25
2022-07-25T12:15:23.053Z,4.60
2022-07-25T12:17:51.634Z,4.70
2022-07-25T12:20:21.033Z,4.00
2022-07-25T12:22:49.727Z,3.83
2022-07-25T12:25:18.764Z,4.78
2022-07-25T12:27:46.662Z,4.78
2022-07-25T12:30:15.012Z,4.53
2022-07-25T12:32:43.115Z,4.53
2022-07-25T12:35:12.280Z,4.50
2022-07-25T12:37:41.228Z,4.53
2022-07-25T12:40:10.482Z,4.80
2022-07-25T12:42:39.511Z,4.47
2022-07-25T12:45:08.541Z,4.55
2022-07-25T12:47:36.747Z,4.32
2022-07-25T12:50:06.224Z,5.03
2022-07-25T12:52:33.917Z,4.13
2022-07-25T12:55:01.660Z,4.60
2022-07-25T12:57:29.304Z,4.50
2022-07-25T12:59:58.359Z,4.13
2022-07-25T13:02:26.112Z,4.75
2022-07-25T13:04:53.782Z,4.82
2022-07-25T13:07:21.605Z,4.78
2022-07-25T13:09:49.281Z,4.25
2022-07-25T13:12:16.973Z,4.43
2022-07-25T13:14:44.683Z,4.55
2022-07-25T13:17:13.687Z,4.63
2022-07-25T13:19:41.798Z,4.22
2022-07-25T13:22:09.495Z,4.80
2022-07-25T13:24:37.438Z,4.32
2022-07-25T13:27:05.697Z,4.90
2022-07-25T13:29:33.459Z,5.13
2022-07-25T13:32:02.579Z,4.80
2022-07-25T13:34:31.819Z,4.82
2022-07-25T13:36:59.593Z,4.68
2022-07-25T13:39:27.284Z,4.70
2022-07-25T13:41:55.014Z,4.63
2022-07-25T13:44:22.731Z,4.53
2022-07-25T13:46:50.603Z,4.47
2022-07-25T13:49:18.832Z,4.47
2022-07-25T13:51:47.887Z,4.15
2022-07-25T13:54:15.653Z,4.63
2022-07-25T13:56:43.381Z,4.35
2022-07-25T13:59:16.003Z,4.68
2022-07-25T14:01:47.422Z,4.70
2022-07-25T14:04:15.207Z,4.85
2022-07-25T14:06:42.988Z,5.10
2022-07-25T14:09:12.040Z,4.50
2022-07-25T14:11:39.808Z,5.03
2022-07-25T14:14:07.601Z,4.30
2022-07-25T14:16:35.430Z,4.53
2022-07-25T14:19:03.522Z,4.75
2022-07-25T14:21:31.718Z,4.70
2022-07-25T14:23:59.398Z,5.10
2022-07-25T14:26:28.725Z,5.15
2022-07-25T14:28:56.665Z,4.90
2022-07-25T14:31:24.485Z,4.82
2022-07-25T14:33:52.413Z,4.88
2022-07-25T14:36:20.129Z,4.45
2022-07-25T14:38:48.294Z,4.88
2022-07-25T14:41:16.469Z,4.28
2022-07-25T14:43:45.660Z,4.75
2022-07-25T14:46:13.363Z,4.57
2022-07-25T14:48:41.328Z,4.30
2022-07-25T14:51:09.155Z,4.18
2022-07-25T14:53:37.289Z,4.50
2022-07-25T14:56:06.522Z,4.53
2022-07-25T14:58:34.734Z,4.20
2022-07-25T15:01:03.832Z,4.47
2022-07-25T15:03:31.811Z,4.60
2022-07-25T15:05:59.548Z,5.05
2022-07-25T15:08:27.297Z,4.60
2022-07-25T15:10:54.930Z,4.50
2022-07-25T15:13:31.469Z,4.80
2022-07-25T15:15:59.948Z,3.90
2022-07-25T15:18:29.207Z,4.53
2022-07-25T15:20:56.873Z,4.18
2022-07-25T15:23:24.900Z,4.32
2022-07-25T15:26:08.098Z,4.47
2022-07-25T15:28:38.481Z,3.88
2022-07-25T15:31:06.918Z,4.03
2022-07-25T15:33:35.932Z,4.40
2022-07-25T15:36:03.756Z,4.57
2022-07-25T15:38:31.575Z,4.65
2022-07-25T15:40:59.355Z,4.55
2022-07-25T15:43:27.370Z,4.47
2022-07-25T15:45:55.011Z,3.67
2022-07-25T15:48:23.595Z,3.97
2022-07-25T15:50:52.802Z,4.60
2022-07-25T15:53:20.616Z,4.32
2022-07-25T15:55:48.503Z,4.43
2022-07-25T15:58:16.313Z,4.13
2022-07-25T16:00:44.295Z,4.80
2022-07-25T16:03:13.691Z,4.60
2022-07-25T16:05:42.132Z,4.40
2022-07-25T16:08:11.144Z,4.18
2022-07-25T16:10:39.805Z,4.65
2022-07-25T16:13:07.578Z,4.10
2022-07-25T16:15:35.582Z,4.43
2022-07-25T16:18:03.406Z,4.90
2022-07-25T16:20:32.289Z,4.57
2022-07-25T16:23:00.533Z,4.05
2022-07-25T16:25:30.285Z,4.38
2022-07-25T16:27:59.536Z,4.10
2022-07-25T16:30:27.804Z,4.15
2022-07-25T16:32:55.901Z,3.85
2022-07-25T16:35:23.774Z,4.05
2022-07-25T16:37:51.609Z,3.67
2022-07-25T16:40:19.256Z,3.65
2022-07-25T16:42:50.505Z,3.72
2022-07-25T16:45:18.161Z,3.60
2022-07-25T16:47:45.790Z,3.63
2022-07-25T16:50:13.584Z,3.35
2022-07-25T16:52:41.193Z,3.25
2022-07-25T16:55:09.512Z,3.25
2022-07-25T16:57:38.867Z,2.97
2022-07-25T17:00:11.397Z,3.20
2022-07-25T17:02:39.753Z,2.50
2022-07-25T17:05:07.949Z,2.60
2022-07-25T17:07:35.783Z,2.38
2022-07-25T17:10:03.817Z,2.25
2022-07-25T17:12:31.495Z,2.13
2022-07-25T17:14:59.186Z,2.30
2022-07-25T17:17:28.170Z,1.80
2022-07-25T17:19:59.889Z,2.50
2022-07-25T17:22:27.893Z,2.55
2022-07-25T17:24:58.680Z,2.40
2022-07-25T17:27:26.373Z,1.95
2022-07-25T17:29:54.062Z,1.80
2022-07-25T17:32:25.023Z,1.70
2022-07-25T17:34:56.775Z,2.00
2022-07-25T17:37:24.490Z,2.13
2022-07-25T17:39:52.260Z,2.00
2022-07-25T17:42:22.228Z,1.98
2022-07-25T17:44:50.272Z,2.08
2022-07-25T17:47:18.471Z,1.88
2022-07-25T17:49:46.231Z,1.70
2022-07-25T17:52:15.932Z,1.83
2022-07-25T17:54:43.758Z,1.92
2022-07-25T17:57:11.905Z,1.67
2022-07-25T17:59:39.651Z,2.38
2022-07-25T18:02:07.522Z,1.75
2022-07-25T18:04:36.546Z,2.00
2022-07-25T18:07:05.691Z,1.95
2022-07-25T18:09:34.800Z,1.98
2022-07-25T18:12:02.525Z,1.77
2022-07-25T18:14:30.652Z,2.03
2022-07-25T18:16:58.694Z,1.80
2022-07-25T18:19:26.483Z,1.67
2022-07-25T18:21:54.303Z,2.20
2022-07-25T18:24:30.489Z,1.90
2022-07-25T18:27:10.409Z,1.65
2022-07-25T18:29:47.093Z,1.77
2022-07-25T18:32:23.636Z,1.70
2022-07-25T18:35:00.676Z,2.10
2022-07-25T18:37:38.297Z,1.80
2022-07-25T18:40:17.837Z,1.80
2022-07-25T18:43:00.009Z,1.60
2022-07-25T18:45:42.830Z,1.70
2022-07-25T18:48:22.934Z,1.40
2022-07-25T18:50:54.120Z,1.52
2022-07-25T18:53:21.789Z,1.50
2022-07-25T18:55:49.661Z,1.52
2022-07-25T18:58:18.833Z,1.55
2022-07-25T19:00:46.598Z,1.50
2022-07-25T19:03:14.320Z,1.50
2022-07-25T19:05:43.012Z,1.60
2022-07-25T19:08:10.879Z,1.40
2022-07-25T19:10:38.656Z,1.40
2022-07-25T19:13:06.297Z,1.30
2022-07-25T19:15:35.813Z,1.50
2022-07-25T19:18:05.109Z,1.40
2022-07-25T19:20:33.320Z,1.50
2022-07-25T19:23:01.007Z,1.70
2022-07-25T19:25:28.730Z,1.02
2022-07-25T19:27:56.434Z,1.33
2022-07-25T19:30:24.103Z,1.30
2022-07-25T19:32:53.245Z,1.30
2022-07-25T19:35:26.075Z,1.50
2022-07-25T19:37:54.163Z,1.40
2022-07-25T19:40:21.980Z,1.70
2022-07-25T19:42:49.698Z,1.50
2022-07-25T19:45:17.336Z,1.60
2022-07-25T19:47:45.217Z,1.40
2022-07-25T19:50:14.281Z,1.70
2022-07-25T19:52:42.093Z,1.40
2022-07-25T19:55:10.958Z,1.23
2022-07-25T19:57:38.825Z,1.30
2022-07-25T20:00:08.340Z,1.67
2022-07-25T20:02:36.190Z,1.60
2022-07-25T20:05:04.075Z,1.90
2022-07-25T20:07:33.399Z,1.30
2022-07-25T20:10:01.124Z,1.33
2022-07-25T20:12:29.051Z,1.53
2022-07-25T20:14:56.824Z,1.63
2022-07-25T20:17:24.494Z,1.27
2022-07-25T20:19:52.791Z,1.77
2022-07-25T20:22:20.690Z,1.30
2022-07-25T20:24:49.746Z,1.50
2022-07-25T20:27:17.518Z,1.73
2022-07-25T20:29:45.216Z,1.63
2022-07-25T20:32:12.934Z,1.60
2022-07-25T20:34:40.644Z,1.43
2022-07-25T20:37:08.405Z,1.40
2022-07-25T20:39:36.243Z,1.70
2022-07-25T20:42:05.634Z,1.70
2022-07-25T20:44:33.324Z,1.30
2022-07-25T20:47:01.515Z,1.60
2022-07-25T20:49:36.060Z,1.30
2022-07-25T20:52:11.157Z,1.60
2022-07-25T20:54:39.862Z,1.47
2022-07-25T20:57:08.942Z,1.73
2022-07-25T20:59:36.569Z,1.50
2022-07-25T21:02:04.328Z,1.57
2022-07-25T21:04:32.039Z,1.50
2022-07-25T21:06:59.712Z,1.60
2022-07-25T21:09:32.499Z,1.43
2022-07-25T21:12:00.486Z,1.50
2022-07-25T21:14:29.838Z,1.37
2022-07-25T21:16:57.704Z,1.43
2022-07-25T21:19:25.440Z,1.60
2022-07-25T21:21:53.217Z,1.97
2022-07-25T21:24:20.868Z,1.67
2022-07-25T21:26:48.690Z,1.43
2022-07-25T21:29:16.373Z,1.50
2022-07-25T21:31:45.459Z,1.60
2022-07-25T21:34:13.201Z,2.00
2022-07-25T21:36:40.948Z,1.93
2022-07-25T21:39:09.352Z,1.70
2022-07-25T21:41:37.448Z,1.80
2022-07-25T21:44:05.477Z,1.63
2022-07-25T21:46:33.232Z,1.70
2022-07-25T21:49:40.698Z,1.53
2022-07-25T21:52:07.596Z,1.80
2022-07-25T21:54:36.318Z,2.00
2022-07-25T21:57:04.322Z,1.83
2022-07-25T21:59:31.989Z,1.93
2022-07-25T22:02:00.462Z,1.33
2022-07-25T22:04:29.520Z,1.73
2022-07-25T22:06:57.198Z,2.00
2022-07-25T22:09:24.854Z,1.97
2022-07-25T22:11:52.514Z,1.60
2022-07-25T22:14:20.175Z,2.07
2022-07-25T22:16:48.089Z,1.67
2022-07-25T22:21:44.811Z,1.60
2022-07-25T22:24:12.559Z,1.83
2022-07-25T22:26:40.190Z,1.73
2022-07-25T22:29:10.511Z,1.77
2022-07-25T22:31:39.497Z,1.77
2022-07-25T22:34:10.122Z,1.57
2022-07-25T22:36:38.183Z,1.70
2022-07-25T22:39:08.006Z,1.80
2022-07-25T22:41:36.274Z,1.47
2022-07-25T22:44:05.556Z,1.60
2022-07-25T22:46:34.551Z,1.73
2022-07-25T22:49:03.246Z,1.83
2022-07-25T22:51:31.309Z,1.50
2022-07-25T22:54:01.897Z,2.00
2022-07-25T22:56:31.650Z,1.60
2022-07-25T22:59:00.354Z,1.60
2022-07-25T23:01:30.160Z,1.50
2022-07-25T23:03:58.533Z,1.60
2022-07-25T23:06:26.874Z,1.80
2022-07-25T23:08:56.010Z,1.73
2022-07-25T23:11:24.532Z,1.70
2022-07-25T23:13:55.713Z,2.07
2022-07-25T23:16:27.681Z,1.83
2022-07-25T23:18:57.147Z,1.90
2022-07-25T23:21:25.524Z,1.60
2022-07-25T23:23:55.401Z,2.00
2022-07-25T23:26:23.286Z,1.60
2022-07-25T23:28:51.162Z,1.57
2022-07-25T23:31:20.284Z,1.53
2022-07-25T23:33:50.614Z,1.70
2022-07-25T23:36:18.355Z,1.80
2022-07-25T23:38:46.710Z,1.70
2022-07-25T23:41:14.455Z,1.70
2022-07-25T23:43:56.947Z,1.97
2022-07-25T23:46:30.905Z,1.50
2022-07-25T23:48:59.985Z,1.60
2022-07-25T23:51:27.790Z,1.60
2022-07-25T23:53:55.483Z,1.60
2022-07-25T23:56:23.371Z,1.60
2022-07-25T23:58:51.261Z,1.33
